createdAt,value
2023-01-17T00:02:03.625Z,12.80
2023-01-17T00:04:49.299Z,13.27
2023-01-17T00:07:36.226Z,15.13
2023-01-17T00:10:07.532Z,14.40
2023-01-17T00:12:35.500Z,14.37
2023-01-17T00:15:04.822Z,15.63
2023-01-17T00:17:34.446Z,13.07
2023-01-17T00:20:20.319Z,11.90
2023-01-17T00:23:05.824Z,13.63
2023-01-17T00:25:52.888Z,10.67
2023-01-17T00:28:22.325Z,12.67
2023-01-17T00:30:48.893Z,10.20
2023-01-17T00:33:21.802Z,13.20
2023-01-17T00:35:49.359Z,12.37
2023-01-17T00:38:16.758Z,11.40
2023-01-17T00:40:44.169Z,11.83
2023-01-17T00:43:30.553Z,10.90
2023-01-17T00:46:16.324Z,12.30
2023-01-17T00:49:04.026Z,13.93
2023-01-17T00:51:50.045Z,12.20
2023-01-17T00:54:35.419Z,11.57
2023-01-17T00:57:20.823Z,16.93
2023-01-17T01:00:06.395Z,15.60
2023-01-17T01:02:51.612Z,13.57
2023-01-17T01:05:38.897Z,11.63
2023-01-17T01:08:34.185Z,13.77
2023-01-17T01:11:19.470Z,13.40
2023-01-17T01:14:04.579Z,13.67
2023-01-17T01:16:49.918Z,14.73
2023-01-17T01:19:35.040Z,14.80
2023-01-17T01:22:22.382Z,13.90
2023-01-17T01:25:07.240Z,15.70
2023-01-17T01:27:52.689Z,17.23
2023-01-17T01:30:37.885Z,15.23
2023-01-17T01:33:20.179Z,14.90
2023-01-17T01:35:49.482Z,13.67
2023-01-17T01:38:18.702Z,16.37
2023-01-17T01:40:47.942Z,13.33
2023-01-17T01:43:16.971Z,16.93
2023-01-17T01:45:46.788Z,15.17
2023-01-17T01:48:21.311Z,14.23
2023-01-17T01:50:50.924Z,13.93
2023-01-17T01:53:21.877Z,15.43
2023-01-17T01:55:52.391Z,13.73
2023-01-17T01:58:22.528Z,14.40
2023-01-17T02:00:50.518Z,16.67
2023-01-17T02:03:20.550Z,13.20
2023-01-17T02:05:48.355Z,15.57
2023-01-17T02:08:17.306Z,14.17
2023-01-17T02:10:46.719Z,14.87
2023-01-17T02:13:16.315Z,15.67
2023-01-17T02:15:48.064Z,15.27
2023-01-17T02:18:19.080Z,12.17
2023-01-17T02:20:58.928Z,14.63
2023-01-17T02:23:38.279Z,14.70
2023-01-17T02:26:21.883Z,14.63
2023-01-17T02:29:01.627Z,13.70
2023-01-17T02:31:33.628Z,14.47
2023-01-17T02:34:04.648Z,14.73
2023-01-17T02:36:34.162Z,13.67
2023-01-17T02:39:06.089Z,14.67
2023-01-17T02:41:36.848Z,15.13
2023-01-17T02:44:05.482Z,13.77
2023-01-17T02:46:34.775Z,15.97
2023-01-17T02:49:03.006Z,15.10
2023-01-17T02:51:41.086Z,13.30
2023-01-17T02:54:25.111Z,13.23
2023-01-17T02:56:58.648Z,14.97
2023-01-17T02:59:35.006Z,13.20
2023-01-17T03:02:09.819Z,13.97
2023-01-17T03:04:42.085Z,15.77
2023-01-17T03:07:12.744Z,14.53
2023-01-17T03:09:43.602Z,18.20
2023-01-17T03:12:11.586Z,15.13
2023-01-17T03:14:40.753Z,14.03
2023-01-17T03:17:09.809Z,12.53
2023-01-17T03:19:37.425Z,14.43
2023-01-17T03:22:05.224Z,14.80
2023-01-17T03:24:32.850Z,16.20
2023-01-17T03:27:01.988Z,13.13
2023-01-17T03:29:29.881Z,12.70
2023-01-17T03:31:58.317Z,15.03
2023-01-17T03:34:27.777Z,16.17
2023-01-17T03:36:55.554Z,14.00
2023-01-17T03:39:26.127Z,14.43
2023-01-17T03:41:53.813Z,13.80
2023-01-17T03:44:21.605Z,13.00
2023-01-17T03:46:49.714Z,13.13
2023-01-17T03:49:17.503Z,14.70
2023-01-17T03:51:46.754Z,12.97
2023-01-17T03:54:14.540Z,14.30
2023-01-17T03:56:44.757Z,14.43
2023-01-17T03:59:13.345Z,16.80
2023-01-17T04:01:41.709Z,13.00
2023-01-17T04:04:11.365Z,14.50
2023-01-17T04:06:39.619Z,15.40
2023-01-17T04:09:08.790Z,14.47
2023-01-17T04:11:36.619Z,14.70
2023-01-17T04:14:04.306Z,11.90
2023-01-17T04:16:34.300Z,12.57
2023-01-17T04:19:02.050Z,13.00
2023-01-17T04:21:30.066Z,15.27
2023-01-17T04:23:57.875Z,13.23
2023-01-17T04:26:27.035Z,13.43
2023-01-17T04:28:54.949Z,15.73
2023-01-17T04:31:22.852Z,14.97
2023-01-17T04:33:50.595Z,14.83
2023-01-17T04:36:18.486Z,12.13
2023-01-17T04:38:47.912Z,11.70
2023-01-17T04:41:15.578Z,10.83
2023-01-17T04:43:45.172Z,11.53
2023-01-17T04:46:13.006Z,11.00
2023-01-17T04:48:41.427Z,9.60
2023-01-17T04:51:09.230Z,12.00
2023-01-17T04:53:36.970Z,11.10
2023-01-17T04:56:04.991Z,10.60
2023-01-17T04:58:33.557Z,9.90
2023-01-17T05:01:10.267Z,12.20
2023-01-17T05:03:38.199Z,11.87
2023-01-17T05:06:06.129Z,9.73
2023-01-17T05:08:33.762Z,12.17
2023-01-17T05:11:01.728Z,11.23
2023-01-17T05:13:29.343Z,13.00
2023-01-17T05:15:57.665Z,12.13
2023-01-17T05:18:30.272Z,11.17
2023-01-17T05:21:02.025Z,11.70
2023-01-17T05:23:30.125Z,11.03
2023-01-17T05:25:57.917Z,12.40
2023-01-17T05:28:25.905Z,11.47
2023-01-17T05:30:53.613Z,9.97
2023-01-17T05:33:21.394Z,13.13
2023-01-17T05:35:50.538Z,11.40
2023-01-17T05:38:18.473Z,11.70
2023-01-17T05:40:46.276Z,9.83
2023-01-17T05:43:14.651Z,10.77
2023-01-17T05:45:42.561Z,13.50
2023-01-17T05:48:10.647Z,10.33
2023-01-17T05:50:42.138Z,11.27
2023-01-17T05:53:12.095Z,11.33
2023-01-17T05:55:40.609Z,12.00
2023-01-17T05:58:09.331Z,12.20
2023-01-17T06:00:38.076Z,11.03
2023-01-17T06:03:05.997Z,11.47
2023-01-17T06:05:33.701Z,10.83
2023-01-17T06:08:01.875Z,8.70
2023-01-17T06:10:31.089Z,9.97
2023-01-17T06:13:02.536Z,12.20
2023-01-17T06:15:31.642Z,11.70
2023-01-17T06:17:59.362Z,13.10
2023-01-17T06:20:27.571Z,14.50
2023-01-17T06:22:55.401Z,10.23
2023-01-17T06:25:23.115Z,7.73
2023-01-17T06:27:54.864Z,8.67
2023-01-17T06:30:22.772Z,7.60
2023-01-17T06:32:53.136Z,7.17
2023-01-17T06:35:21.874Z,5.50
2023-01-17T06:37:51.883Z,8.30
2023-01-17T06:40:19.752Z,8.30
2023-01-17T06:42:47.609Z,9.47
2023-01-17T06:45:17.047Z,8.30
2023-01-17T06:47:45.106Z,12.00
2023-01-17T06:50:14.857Z,10.37
2023-01-17T06:52:42.914Z,8.07
2023-01-17T06:55:11.291Z,7.53
2023-01-17T06:57:39.075Z,11.03
2023-01-17T07:00:07.437Z,9.63
2023-01-17T07:02:36.478Z,10.53
2023-01-17T07:05:04.285Z,16.50
2023-01-17T07:07:33.827Z,11.60
2023-01-17T07:10:03.663Z,13.13
2023-01-17T07:12:31.738Z,13.93
2023-01-17T07:14:59.460Z,12.50
2023-01-17T07:17:27.192Z,10.63
2023-01-17T07:19:56.440Z,14.80
2023-01-17T07:22:24.047Z,19.60
2023-01-17T07:24:53.551Z,17.67
2023-01-17T07:27:21.357Z,7.73
2023-01-17T07:29:49.784Z,14.33
2023-01-17T07:32:17.851Z,11.00
2023-01-17T07:34:45.695Z,8.47
2023-01-17T07:37:15.451Z,11.13
2023-01-17T07:39:43.452Z,12.63
2023-01-17T07:42:11.798Z,15.27
2023-01-17T07:44:41.514Z,7.93
2023-01-17T07:47:09.211Z,14.37
2023-01-17T07:49:36.901Z,10.73
2023-01-17T07:52:04.895Z,11.37
2023-01-17T07:54:33.998Z,11.03
2023-01-17T07:57:03.768Z,10.90
2023-01-17T07:59:33.811Z,13.47
2023-01-17T08:02:01.774Z,13.17
2023-01-17T08:04:34.845Z,13.13
2023-01-17T08:07:03.034Z,10.50
2023-01-17T08:09:30.931Z,14.57
2023-01-17T08:12:00.089Z,13.27
2023-01-17T08:14:27.744Z,11.73
2023-01-17T08:16:55.448Z,12.03
2023-01-17T08:19:23.163Z,7.53
2023-01-17T08:21:50.922Z,14.13
2023-01-17T08:24:18.799Z,7.00
2023-01-17T08:26:46.582Z,5.00
2023-01-17T08:29:16.151Z,11.43
2023-01-17T08:31:44.104Z,7.30
2023-01-17T08:34:11.993Z,9.90
2023-01-17T08:36:39.813Z,11.43
2023-01-17T08:39:07.577Z,10.93
2023-01-17T08:41:36.131Z,11.33
2023-01-17T08:44:04.334Z,7.70
2023-01-17T08:46:33.705Z,11.53
2023-01-17T08:49:03.372Z,7.00
2023-01-17T08:51:32.507Z,8.17
2023-01-17T08:54:00.330Z,3.83
2023-01-17T08:56:28.128Z,5.70
2023-01-17T08:58:55.933Z,6.77
2023-01-17T09:01:23.806Z,3.17
2023-01-17T09:03:52.719Z,3.33
2023-01-17T09:06:24.464Z,4.83
2023-01-17T09:08:55.021Z,6.80
2023-01-17T09:11:22.888Z,4.60
2023-01-17T09:13:50.599Z,5.47
2023-01-17T09:16:19.120Z,4.20
2023-01-17T09:18:46.920Z,3.13
2023-01-17T09:21:15.992Z,1.97
2023-01-17T09:23:45.651Z,1.87
2023-01-17T09:26:18.356Z,1.87
2023-01-17T09:28:46.599Z,1.37
2023-01-17T09:31:15.963Z,1.83
2023-01-17T09:33:45.178Z,3.63
2023-01-17T09:36:13.267Z,9.03
2023-01-17T09:38:41.311Z,5.93
2023-01-17T09:41:24.369Z,5.10
2023-01-17T09:43:55.617Z,12.73
2023-01-17T09:46:26.420Z,6.80
2023-01-17T09:48:58.996Z,7.53
2023-01-17T09:51:27.073Z,7.80
2023-01-17T09:53:55.642Z,6.60
2023-01-17T09:56:27.905Z,5.67
2023-01-17T09:59:04.023Z,7.40
2023-01-17T10:01:33.616Z,6.93
2023-01-17T10:04:12.458Z,1.80
2023-01-17T10:06:46.926Z,2.67
2023-01-17T10:09:31.301Z,5.20
2023-01-17T10:12:06.663Z,3.77
2023-01-17T10:14:44.066Z,6.53
2023-01-17T10:17:17.941Z,3.73
2023-01-17T10:19:52.883Z,6.23
2023-01-17T10:22:34.847Z,3.00
2023-01-17T10:25:17.560Z,15.83
2023-01-17T10:27:48.148Z,11.47
2023-01-17T10:30:22.853Z,3.77
2023-01-17T10:32:51.011Z,6.00
2023-01-17T10:35:26.117Z,4.00
2023-01-17T10:37:56.891Z,3.33
2023-01-17T10:40:27.555Z,5.80
2023-01-17T10:42:59.973Z,3.20
2023-01-17T10:45:29.713Z,2.40
2023-01-17T10:48:01.286Z,6.03
2023-01-17T10:50:29.767Z,2.57
2023-01-17T10:53:02.433Z,3.70
2023-01-17T10:55:35.162Z,1.93
2023-01-17T10:58:04.297Z,1.30
2023-01-17T11:00:44.224Z,3.13
2023-01-17T11:03:13.370Z,2.03
2023-01-17T11:05:42.851Z,1.00
2023-01-17T11:08:11.436Z,2.47
2023-01-17T11:10:41.374Z,3.60
2023-01-17T11:13:20.887Z,1.13
2023-01-17T11:15:51.819Z,1.27
2023-01-17T11:18:21.194Z,3.00
2023-01-17T11:20:51.234Z,7.00
2023-01-17T11:23:22.243Z,3.50
2023-01-17T11:25:51.066Z,1.60
2023-01-17T11:28:23.090Z,1.07
2023-01-17T11:30:54.604Z,1.27
2023-01-17T11:33:45.239Z,0.97
2023-01-17T11:36:19.845Z,2.97
2023-01-17T11:38:57.896Z,1.00
2023-01-17T11:41:28.001Z,5.60
2023-01-17T11:43:57.215Z,3.17
2023-01-17T11:46:28.546Z,3.70
2023-01-17T11:48:57.452Z,0.90
2023-01-17T11:51:29.533Z,6.10
2023-01-17T11:54:06.611Z,2.87
2023-01-17T11:56:36.709Z,1.03
2023-01-17T11:59:25.449Z,1.90
2023-01-17T12:02:07.714Z,1.20
2023-01-17T12:04:37.572Z,1.03
2023-01-17T12:07:20.457Z,2.93
2023-01-17T12:09:52.149Z,1.13
2023-01-17T12:12:42.090Z,5.00
2023-01-17T12:15:18.463Z,1.17
2023-01-17T12:17:55.140Z,1.43
2023-01-17T12:20:26.204Z,1.47
2023-01-17T12:23:14.079Z,1.83
2023-01-17T12:25:54.760Z,2.80
2023-01-17T12:28:31.528Z,1.13
2023-01-17T12:31:09.264Z,0.77
2023-01-17T12:33:46.336Z,1.37
2023-01-17T12:36:22.663Z,1.20
2023-01-17T12:38:50.881Z,3.20
2023-01-17T12:41:23.200Z,3.07
2023-01-17T12:43:54.145Z,1.20
2023-01-17T12:46:28.482Z,0.93
2023-01-17T12:49:01.628Z,3.00
2023-01-17T12:51:31.575Z,1.77
2023-01-17T12:54:01.233Z,0.80
2023-01-17T12:56:38.669Z,4.20
2023-01-17T12:59:09.783Z,1.47
2023-01-17T13:01:40.033Z,2.47
2023-01-17T13:04:15.368Z,1.60
2023-01-17T13:06:47.152Z,1.03
2023-01-17T13:09:16.972Z,2.93
2023-01-17T13:11:55.084Z,3.10
2023-01-17T13:14:22.829Z,1.73
2023-01-17T13:16:54.784Z,3.47
2023-01-17T13:19:28.598Z,2.63
2023-01-17T13:21:57.753Z,4.70
2023-01-17T13:24:33.504Z,3.50
2023-01-17T13:27:28.580Z,0.97
2023-01-17T13:30:02.414Z,1.20
2023-01-17T13:32:43.248Z,3.30
2023-01-17T13:35:22.844Z,1.40
2023-01-17T13:37:56.510Z,1.60
2023-01-17T13:40:35.522Z,1.93
2023-01-17T13:43:04.186Z,2.53
2023-01-17T13:45:33.501Z,2.40
2023-01-17T13:48:26.158Z,1.77
2023-01-17T13:50:56.825Z,1.00
2023-01-17T13:53:57.988Z,4.07
2023-01-17T13:56:27.307Z,1.50
2023-01-17T13:59:03.335Z,1.20
2023-01-17T14:01:49.531Z,3.13
2023-01-17T14:04:17.634Z,2.23
2023-01-17T14:06:49.033Z,3.70
2023-01-17T14:09:19.811Z,0.83
2023-01-17T14:11:58.079Z,2.97
2023-01-17T14:14:44.483Z,1.40
2023-01-17T14:17:30.477Z,2.33
2023-01-17T14:20:01.476Z,2.13
2023-01-17T14:22:33.076Z,1.27
2023-01-17T14:25:03.043Z,1.80
2023-01-17T14:27:31.995Z,0.80
2023-01-17T14:30:00.515Z,1.63
2023-01-17T14:32:29.464Z,0.93
2023-01-17T14:34:57.872Z,3.43
2023-01-17T14:37:41.971Z,2.20
2023-01-17T14:40:17.692Z,1.53
2023-01-17T14:42:46.247Z,5.43
2023-01-17T14:45:16.340Z,4.20
2023-01-17T14:47:45.207Z,3.40
2023-01-17T14:50:20.024Z,0.77
2023-01-17T14:52:49.128Z,1.67
2023-01-17T14:55:17.821Z,1.53
2023-01-17T14:57:54.820Z,0.97
2023-01-17T15:00:24.593Z,1.43
2023-01-17T15:02:53.784Z,1.00
2023-01-17T15:05:23.079Z,3.93
2023-01-17T15:07:53.306Z,4.30
2023-01-17T15:10:23.328Z,8.47
2023-01-17T15:12:52.478Z,3.67
2023-01-17T15:15:30.604Z,5.80
2023-01-17T15:18:18.158Z,6.30
2023-01-17T15:20:50.020Z,6.93
2023-01-17T15:23:22.536Z,7.07
2023-01-17T15:25:51.627Z,8.73
2023-01-17T15:28:19.519Z,5.20
2023-01-17T15:31:04.229Z,6.77
2023-01-17T15:33:32.912Z,6.87
2023-01-17T15:36:01.611Z,6.30
2023-01-17T15:38:38.567Z,5.83
2023-01-17T15:41:10.318Z,6.60
2023-01-17T15:43:39.039Z,8.60
2023-01-17T15:46:07.447Z,6.73
2023-01-17T15:48:38.919Z,1.73
2023-01-17T15:51:07.019Z,3.53
2023-01-17T15:53:37.250Z,1.90
2023-01-17T15:56:20.903Z,2.83
2023-01-17T15:58:50.810Z,4.63
2023-01-17T16:01:24.999Z,6.17
2023-01-17T16:03:54.042Z,4.60
2023-01-17T16:06:36.759Z,4.30
2023-01-17T16:09:20.520Z,7.43
2023-01-17T16:11:48.423Z,9.13
2023-01-17T16:14:16.198Z,7.23
2023-01-17T16:16:50.506Z,8.27
2023-01-17T16:19:20.715Z,10.40
2023-01-17T16:21:48.573Z,8.93
2023-01-17T16:24:18.803Z,9.67
2023-01-17T16:26:46.447Z,10.40
2023-01-17T16:29:14.223Z,7.30
2023-01-17T16:31:42.021Z,8.33
2023-01-17T16:34:11.252Z,9.03
2023-01-17T16:36:39.066Z,11.77
2023-01-17T16:39:07.267Z,8.67
2023-01-17T16:41:36.543Z,8.07
2023-01-17T16:44:06.643Z,9.87
2023-01-17T16:46:38.142Z,12.10
2023-01-17T16:49:06.332Z,10.90
2023-01-17T16:51:34.606Z,13.00
2023-01-17T16:54:02.600Z,8.97
2023-01-17T16:56:30.362Z,7.43
2023-01-17T16:58:59.633Z,8.67
2023-01-17T17:01:27.380Z,11.07
2023-01-17T17:03:55.352Z,9.60
2023-01-17T17:06:23.273Z,9.53
2023-01-17T17:08:50.946Z,9.20
2023-01-17T17:11:19.891Z,8.23
2023-01-17T17:13:48.272Z,9.30
2023-01-17T17:16:18.776Z,10.80
2023-01-17T17:18:47.606Z,12.57
2023-01-17T17:21:15.438Z,14.57
2023-01-17T17:23:43.261Z,11.90
2023-01-17T17:26:11.351Z,13.73
2023-01-17T17:28:39.086Z,10.23
2023-01-17T17:31:10.382Z,11.07
2023-01-17T17:33:40.096Z,8.90
2023-01-17T17:36:10.386Z,9.70
2023-01-17T17:38:51.110Z,14.10
2023-01-17T17:41:20.468Z,15.23
2023-01-17T17:43:49.294Z,10.63
2023-01-17T17:46:17.190Z,6.17
2023-01-17T17:48:46.677Z,7.10
2023-01-17T17:51:24.615Z,14.57
2023-01-17T17:53:52.833Z,9.37
2023-01-17T17:56:21.084Z,8.37
2023-01-17T17:58:49.260Z,5.03
2023-01-17T18:01:17.179Z,10.83
2023-01-17T18:03:46.554Z,16.30
2023-01-17T18:06:17.523Z,17.67
2023-01-17T18:08:46.274Z,7.77
2023-01-17T18:11:17.923Z,9.07
2023-01-17T18:13:47.773Z,5.73
2023-01-17T18:16:16.205Z,5.90
2023-01-17T18:18:47.823Z,7.47
2023-01-17T18:21:16.323Z,7.13
2023-01-17T18:23:45.387Z,8.00
2023-01-17T18:26:17.153Z,7.83
2023-01-17T18:28:46.712Z,10.57
2023-01-17T18:31:14.865Z,4.13
2023-01-17T18:33:42.851Z,6.23
2023-01-17T18:36:13.012Z,5.07
2023-01-17T18:38:42.319Z,8.07
2023-01-17T18:41:11.003Z,7.60
2023-01-17T18:43:39.585Z,7.93
2023-01-17T18:46:07.845Z,6.50
2023-01-17T18:48:35.964Z,6.23
2023-01-17T18:51:05.501Z,3.87
2023-01-17T18:53:35.689Z,2.47
2023-01-17T18:56:04.803Z,4.00
2023-01-17T18:58:33.566Z,2.33
2023-01-17T19:01:08.843Z,3.17
2023-01-17T19:03:36.968Z,4.10
2023-01-17T19:06:05.543Z,6.80
2023-01-17T19:08:35.584Z,1.83
2023-01-17T19:11:06.813Z,2.27
2023-01-17T19:13:36.060Z,2.43
2023-01-17T19:16:04.333Z,3.57
2023-01-17T19:18:32.339Z,1.67
2023-01-17T19:21:04.848Z,2.17
2023-01-17T19:23:32.659Z,1.40
2023-01-17T19:26:02.020Z,1.17
2023-01-17T19:28:30.189Z,0.97
2023-01-17T19:31:04.396Z,2.07
2023-01-17T19:33:32.358Z,1.87
2023-01-17T19:36:00.960Z,1.67
2023-01-17T19:38:28.915Z,0.97
2023-01-17T19:40:56.776Z,2.17
2023-01-17T19:43:27.605Z,1.77
2023-01-17T19:45:59.568Z,1.33
2023-01-17T19:48:27.688Z,1.77
2023-01-17T19:50:55.731Z,0.97
2023-01-17T19:53:23.997Z,1.83
2023-01-17T19:55:51.685Z,1.20
2023-01-17T19:58:19.343Z,1.80
2023-01-17T20:00:48.919Z,0.77
2023-01-17T20:03:16.682Z,1.10
2023-01-17T20:05:46.179Z,1.83
2023-01-17T20:08:14.351Z,1.07
2023-01-17T20:10:42.174Z,0.77
2023-01-17T20:13:09.956Z,0.70
2023-01-17T20:15:37.631Z,1.83
2023-01-17T20:18:06.935Z,0.80
2023-01-17T20:20:39.611Z,1.33
2023-01-17T20:23:13.834Z,1.23
2023-01-17T20:25:42.013Z,1.87
2023-01-17T20:28:09.988Z,2.37
2023-01-17T20:30:37.662Z,1.07
2023-01-17T20:33:09.165Z,0.60
2023-01-17T20:35:38.048Z,1.23
2023-01-17T20:38:07.702Z,2.03
2023-01-17T20:40:35.647Z,2.30
2023-01-17T20:43:04.318Z,1.63
2023-01-17T20:45:32.056Z,1.40
2023-01-17T20:48:00.548Z,1.23
2023-01-17T20:50:32.309Z,0.87
2023-01-17T20:53:00.268Z,0.87
2023-01-17T20:55:27.994Z,1.23
2023-01-17T20:57:57.547Z,1.00
2023-01-17T21:00:25.544Z,1.47
2023-01-17T21:02:53.287Z,3.50
2023-01-17T21:05:21.003Z,0.80
2023-01-17T21:07:50.077Z,2.67
2023-01-17T21:10:18.183Z,1.20
2023-01-17T21:12:46.891Z,1.37
2023-01-17T21:15:17.675Z,0.80
2023-01-17T21:17:45.633Z,0.90
2023-01-17T21:20:15.047Z,1.57
2023-01-17T21:22:42.710Z,1.07
2023-01-17T21:25:14.846Z,0.97
2023-01-17T21:27:43.938Z,2.43
2023-01-17T21:30:12.639Z,1.60
2023-01-17T21:32:40.500Z,4.00
2023-01-17T21:35:08.997Z,1.73
2023-01-17T21:37:36.675Z,3.20
2023-01-17T21:40:05.385Z,1.03
2023-01-17T21:42:35.231Z,2.13
2023-01-17T21:45:03.116Z,3.03
2023-01-17T21:47:30.858Z,1.20
2023-01-17T21:49:58.644Z,2.03
2023-01-17T21:52:26.338Z,1.73
2023-01-17T21:55:11.884Z,0.87
2023-01-17T21:57:58.391Z,0.90
2023-01-17T22:00:26.309Z,1.10
2023-01-17T22:02:54.023Z,2.47
2023-01-17T22:05:21.819Z,1.13
2023-01-17T22:08:07.044Z,0.87
2023-01-17T22:10:44.565Z,2.07
2023-01-17T22:13:15.398Z,1.00
2023-01-17T22:15:43.036Z,1.67
2023-01-17T22:18:11.190Z,1.70
2023-01-17T22:20:40.153Z,0.97
2023-01-17T22:23:08.262Z,1.67
2023-01-17T22:25:35.924Z,2.53
2023-01-17T22:28:03.857Z,3.40
2023-01-17T22:30:32.984Z,1.30
2023-01-17T22:33:00.676Z,2.23
2023-01-17T22:35:28.546Z,0.73
2023-01-17T22:37:56.364Z,1.60
2023-01-17T22:40:26.281Z,0.60
2023-01-17T22:42:54.199Z,0.80
2023-01-17T22:45:24.088Z,0.83
2023-01-17T22:47:53.085Z,0.67
2023-01-17T22:50:21.111Z,0.80
2023-01-17T22:52:48.826Z,0.67
2023-01-17T22:55:16.529Z,2.80
2023-01-17T22:57:46.057Z,0.53
2023-01-17T23:00:15.481Z,2.37
2023-01-17T23:02:43.590Z,0.87
2023-01-17T23:05:12.792Z,0.80
2023-01-17T23:07:44.400Z,0.80
2023-01-17T23:10:35.363Z,2.63
2023-01-17T23:13:03.018Z,1.10
2023-01-17T23:15:47.998Z,1.43
2023-01-17T23:18:32.823Z,1.93
2023-01-17T23:21:02.978Z,1.40
2023-01-17T23:23:30.737Z,1.33
2023-01-17T23:26:00.607Z,2.73
2023-01-17T23:28:27.356Z,0.97
2023-01-17T23:30:55.095Z,1.47
2023-01-17T23:33:22.877Z,1.60
2023-01-17T23:35:50.571Z,1.23
2023-01-17T23:38:34.210Z,1.13
2023-01-17T23:41:21.023Z,1.50
2023-01-17T23:43:55.184Z,2.97
2023-01-17T23:46:24.031Z,0.67
2023-01-17T23:48:52.240Z,2.30
2023-01-17T23:51:19.916Z,3.03
2023-01-17T23:53:49.044Z,0.90
2023-01-17T23:56:18.408Z,2.30
2023-01-17T23:58:46.116Z,0.97
